»·PEaware :: N172TG KSBA-L52

N172TG :: KSBA-L52

FLIGHT INFORMATION

Flight Status: Arrived
Operator: Privately registered:
United States
More flights under this callsign
Pilot: Patrick B. (17678)
Aircraft: CESSNA 172 SKYHAWK
(C172)
More flights by this aircraft type
Origin: KSBA Santa Barbara Mun
United States
Destination: L52 Oceano Co
United States
More flights between these airports :: More routes between these airports
Route:
File this flight plan on PilotEdge
Remarks:
Altitude:
(Current/Filed)
3,500ft
Speed:
(Current/Filed)
110kts
Departed: 27-Dec-17 11:10 PM
Arrived: 27-Dec-17 11:41 PM
Distance/Time
Traveled:
56nm/0:31
Distance/Time
To Go:
Arrived

Flight Plot

Page will automatically refresh every two minutes.

Flight plan parsing failed; only flown route is shown


Map Options




Map Legend


Flown Route
Filed Route
Departure Airport
Arrival Airport
Navaid (VOR, NDB)
Fix

Horizontal Profiles

Position Reports

Time Latitude Longitude Heading Altitude Ground
Speed
27-Dec-17 22:42 33.825353 -116.509541 90 420ft 0kts
27-Dec-17 22:43 33.825353 -116.509541 90 420ft 0kts
27-Dec-17 22:44 33.825353 -116.509541 90 420ft 0kts
27-Dec-17 22:45 33.825353 -116.509541 90 420ft 0kts
27-Dec-17 22:46 33.825353 -116.509541 90 420ft 0kts
27-Dec-17 22:47 34.432569 -119.835084 71 14ft 0kts
27-Dec-17 22:48 34.432569 -119.835084 71 14ft 0kts
27-Dec-17 22:49 34.432569 -119.835084 71 14ft 0kts
27-Dec-17 22:50 34.432569 -119.835084 71 14ft 0kts
27-Dec-17 22:51 34.432570 -119.835084 71 14ft 0kts
27-Dec-17 22:52 34.432570 -119.835084 71 14ft 0kts
27-Dec-17 22:53 34.432570 -119.835084 71 14ft 0kts
27-Dec-17 22:54 34.432570 -119.835084 71 14ft 0kts
27-Dec-17 22:55 34.432570 -119.835084 71 14ft 0kts
27-Dec-17 22:56 34.432570 -119.835084 71 14ft 0kts
27-Dec-17 22:57 34.432570 -119.835084 71 14ft 0kts
27-Dec-17 22:58 34.432570 -119.835084 71 14ft 0kts
27-Dec-17 22:59 34.432570 -119.835084 71 14ft 0kts
27-Dec-17 23:00 34.432570 -119.835084 71 14ft 0kts
27-Dec-17 23:01 34.432570 -119.835084 71 14ft 0kts
27-Dec-17 23:02 34.432570 -119.835084 71 14ft 0kts
27-Dec-17 23:03 34.432570 -119.835084 71 14ft 0kts
27-Dec-17 23:04 34.432570 -119.835084 71 14ft 0kts
27-Dec-17 23:05 34.432570 -119.835084 71 14ft 0kts
27-Dec-17 23:06 34.432570 -119.835084 71 14ft 0kts
27-Dec-17 23:07 34.432570 -119.835084 71 14ft 0kts
27-Dec-17 23:08 34.432570 -119.835084 71 14ft 0kts
27-Dec-17 23:09 34.432570 -119.835084 71 14ft 0kts
27-Dec-17 23:10 34.432570 -119.835084 71 14ft 0kts
27-Dec-17 23:11 34.432570 -119.835084 71 14ft 0kts
27-Dec-17 23:12 34.432103 -119.834818 219 14ft 5kts
27-Dec-17 23:13 34.428932 -119.834711 149 10ft 11kts
27-Dec-17 23:14 34.428632 -119.834652 181 10ft 0kts
27-Dec-17 23:15 34.428632 -119.834652 181 10ft 0kts
27-Dec-17 23:16 34.427743 -119.846080 268 148ft 79kts
27-Dec-17 23:17 34.431630 -119.873525 292 946ft 86kts
27-Dec-17 23:18 34.447146 -119.898250 305 1627ft 95kts
27-Dec-17 23:19 34.464751 -119.922729 309 2278ft 98kts
27-Dec-17 23:20 34.481645 -119.949464 302 2843ft 102kts
27-Dec-17 23:21 34.495916 -119.981377 293 3297ft 109kts
27-Dec-17 23:22 34.510704 -120.011926 307 3699ft 116kts
27-Dec-17 23:23 34.531705 -120.045264 308 3538ft 128kts
27-Dec-17 23:24 34.552826 -120.078700 308 3544ft 124kts
27-Dec-17 23:25 34.577460 -120.105956 345 3544ft 123kts
27-Dec-17 23:26 34.610596 -120.116196 345 3545ft 123kts
27-Dec-17 23:27 34.643775 -120.126416 345 3545ft 123kts
27-Dec-17 23:28 34.676856 -120.137480 338 3545ft 123kts
27-Dec-17 23:29 34.705823 -120.159250 322 3545ft 123kts
27-Dec-17 23:30 34.731915 -120.186485 318 3545ft 123kts
27-Dec-17 23:31 34.757060 -120.215017 317 3543ft 123kts
27-Dec-17 23:32 34.781861 -120.243892 316 3542ft 124kts
27-Dec-17 23:33 34.806647 -120.273066 316 3540ft 123kts
27-Dec-17 23:34 34.831276 -120.302100 316 3538ft 123kts
27-Dec-17 23:35 34.855961 -120.331226 316 3537ft 123kts
27-Dec-17 23:36 34.880593 -120.360314 316 3536ft 123kts
27-Dec-17 23:37 34.905362 -120.389588 316 3490ft 124kts
27-Dec-17 23:38 34.930135 -120.418896 316 3490ft 123kts
27-Dec-17 23:39 34.954758 -120.448051 316 3490ft 123kts
27-Dec-17 23:40 34.979457 -120.477322 316 3490ft 123kts
27-Dec-17 23:41 35.004222 -120.505168 317 3058ft 117kts
27-Dec-17 23:42 35.028416 -120.529723 329 2850ft 112kts
27-Dec-17 23:43 35.057004 -120.551805 325 2672ft 125kts
27-Dec-17 23:44 35.076864 -120.577651 308 2265ft 76kts
27-Dec-17 23:45 35.089495 -120.599009 308 1379ft 74kts
27-Dec-17 23:46 35.101055 -120.621398 299 21ft 68kts
27-Dec-17 23:47 35.103478 -120.624708 13 18ft 0kts

Navigation Log

Ident Type
Flight plan parsing failed, navigation log unavailable